sensor_id;sensor_type;location;lat;lon;timestamp;P1;durP1;ratioP1;P2;durP2;ratioP2
70967;SDS011;58629;48.808;8.820;2022-09-09T00:00:40;0.80;;;0.60;;
70967;SDS011;58629;48.808;8.820;2022-09-09T00:03:14;0.70;;;0.60;;
70967;SDS011;58629;48.808;8.820;2022-09-09T00:05:58;1.10;;;0.80;;
70967;SDS011;58629;48.808;8.820;2022-09-09T00:08:33;2.13;;;0.77;;
70967;SDS011;58629;48.808;8.820;2022-09-09T00:14:18;1.00;;;0.60;;
70967;SDS011;58629;48.808;8.820;2022-09-09T00:16:54;2.15;;;1.00;;
70967;SDS011;58629;48.808;8.820;2022-09-09T00:19:24;1.73;;;1.08;;
70967;SDS011;58629;48.808;8.820;2022-09-09T00:22:12;2.50;;;1.00;;
70967;SDS011;58629;48.808;8.820;2022-09-09T00:24:44;2.58;;;1.27;;
70967;SDS011;58629;48.808;8.820;2022-09-09T00:27:34;2.22;;;1.05;;
70967;SDS011;58629;48.808;8.820;2022-09-09T00:32:54;1.50;;;0.90;;
70967;SDS011;58629;48.808;8.820;2022-09-09T00:35:38;1.42;;;0.90;;
70967;SDS011;58629;48.808;8.820;2022-09-09T00:38:22;4.50;;;1.20;;
70967;SDS011;58629;48.808;8.820;2022-09-09T00:40:56;6.15;;;1.30;;
70967;SDS011;58629;48.808;8.820;2022-09-09T00:43:32;3.50;;;1.10;;
70967;SDS011;58629;48.808;8.820;2022-09-09T00:46:13;1.85;;;0.98;;
70967;SDS011;58629;48.808;8.820;2022-09-09T00:49:00;1.20;;;1.00;;
70967;SDS011;58629;48.808;8.820;2022-09-09T00:51:46;2.90;;;0.88;;
70967;SDS011;58629;48.808;8.820;2022-09-09T00:57:07;1.38;;;0.90;;
70967;SDS011;58629;48.808;8.820;2022-09-09T00:59:47;2.35;;;0.88;;
70967;SDS011;58629;48.808;8.820;2022-09-09T01:02:30;1.67;;;1.00;;
70967;SDS011;58629;48.808;8.820;2022-09-09T01:05:08;3.88;;;1.05;;
70967;SDS011;58629;48.808;8.820;2022-09-09T01:07:40;2.33;;;1.10;;
70967;SDS011;58629;48.808;8.820;2022-09-09T01:10:15;3.13;;;1.10;;
70967;SDS011;58629;48.808;8.820;2022-09-09T01:12:51;2.10;;;1.10;;
70967;SDS011;58629;48.808;8.820;2022-09-09T01:15:22;2.40;;;0.80;;
70967;SDS011;58629;48.808;8.820;2022-09-09T01:18:02;0.80;;;0.70;;
70967;SDS011;58629;48.808;8.820;2022-09-09T01:26:04;1.83;;;0.70;;
70967;SDS011;58629;48.808;8.820;2022-09-09T01:28:39;0.63;;;0.52;;
70967;SDS011;58629;48.808;8.820;2022-09-09T01:31:07;1.50;;;0.80;;
70967;SDS011;58629;48.808;8.820;2022-09-09T01:33:36;1.90;;;1.20;;
70967;SDS011;58629;48.808;8.820;2022-09-09T01:38:26;1.20;;;0.70;;
70967;SDS011;58629;48.808;8.820;2022-09-09T01:40:54;0.70;;;0.55;;
70967;SDS011;58629;48.808;8.820;2022-09-09T01:43:20;1.50;;;0.80;;
70967;SDS011;58629;48.808;8.820;2022-09-09T01:45:47;1.77;;;0.70;;
70967;SDS011;58629;48.808;8.820;2022-09-09T01:48:15;1.52;;;0.60;;
70967;SDS011;58629;48.808;8.820;2022-09-09T01:50:41;1.27;;;0.50;;
70967;SDS011;58629;48.808;8.820;2022-09-09T01:53:07;4.80;;;0.83;;
70967;SDS011;58629;48.808;8.820;2022-09-09T01:55:37;1.00;;;0.60;;
70967;SDS011;58629;48.808;8.820;2022-09-09T01:58:23;0.98;;;0.40;;
70967;SDS011;58629;48.808;8.820;2022-09-09T02:03:40;0.75;;;0.40;;
70967;SDS011;58629;48.808;8.820;2022-09-09T02:06:20;0.80;;;0.40;;
70967;SDS011;58629;48.808;8.820;2022-09-09T02:08:53;1.27;;;0.70;;
70967;SDS011;58629;48.808;8.820;2022-09-09T02:11:22;1.75;;;0.60;;
70967;SDS011;58629;48.808;8.820;2022-09-09T02:13:51;0.40;;;0.38;;
70967;SDS011;58629;48.808;8.820;2022-09-09T02:19:06;2.00;;;0.50;;
70967;SDS011;58629;48.808;8.820;2022-09-09T02:21:38;1.85;;;0.60;;
70967;SDS011;58629;48.808;8.820;2022-09-09T02:24:07;1.20;;;0.38;;
70967;SDS011;58629;48.808;8.820;2022-09-09T02:26:35;0.68;;;0.40;;
70967;SDS011;58629;48.808;8.820;2022-09-09T02:29:06;1.90;;;0.50;;
70967;SDS011;58629;48.808;8.820;2022-09-09T02:31:36;0.98;;;0.40;;
70967;SDS011;58629;48.808;8.820;2022-09-09T02:34:02;0.30;;;0.30;;
70967;SDS011;58629;48.808;8.820;2022-09-09T02:36:31;1.17;;;0.57;;
70967;SDS011;58629;48.808;8.820;2022-09-09T02:38:59;0.77;;;0.50;;
70967;SDS011;58629;48.808;8.820;2022-09-09T02:41:35;0.65;;;0.50;;
70967;SDS011;58629;48.808;8.820;2022-09-09T02:44:05;0.68;;;0.50;;
70967;SDS011;58629;48.808;8.820;2022-09-09T02:49:47;0.52;;;0.40;;
70967;SDS011;58629;48.808;8.820;2022-09-09T02:52:30;0.30;;;0.30;;
70967;SDS011;58629;48.808;8.820;2022-09-09T02:55:04;1.25;;;0.40;;
70967;SDS011;58629;48.808;8.820;2022-09-09T02:57:36;1.02;;;0.40;;
70967;SDS011;58629;48.808;8.820;2022-09-09T03:00:03;1.02;;;0.52;;
70967;SDS011;58629;48.808;8.820;2022-09-09T03:02:30;0.57;;;0.32;;
70967;SDS011;58629;48.808;8.820;2022-09-09T03:04:55;1.27;;;0.40;;
70967;SDS011;58629;48.808;8.820;2022-09-09T03:07:20;0.77;;;0.30;;
70967;SDS011;58629;48.808;8.820;2022-09-09T03:09:46;0.60;;;0.40;;
70967;SDS011;58629;48.808;8.820;2022-09-09T03:12:12;0.77;;;0.43;;
70967;SDS011;58629;48.808;8.820;2022-09-09T03:14:37;0.97;;;0.40;;
70967;SDS011;58629;48.808;8.820;2022-09-09T03:17:04;0.77;;;0.40;;
70967;SDS011;58629;48.808;8.820;2022-09-09T03:19:30;2.40;;;0.40;;
70967;SDS011;58629;48.808;8.820;2022-09-09T03:21:56;1.13;;;0.43;;
70967;SDS011;58629;48.808;8.820;2022-09-09T03:24:21;1.40;;;0.32;;
70967;SDS011;58629;48.808;8.820;2022-09-09T03:26:47;1.80;;;0.45;;
70967;SDS011;58629;48.808;8.820;2022-09-09T03:29:13;1.67;;;0.43;;
70967;SDS011;58629;48.808;8.820;2022-09-09T03:31:39;1.67;;;0.50;;
70967;SDS011;58629;48.808;8.820;2022-09-09T03:34:05;0.70;;;0.37;;
70967;SDS011;58629;48.808;8.820;2022-09-09T03:36:31;0.77;;;0.40;;
70967;SDS011;58629;48.808;8.820;2022-09-09T03:38:56;1.67;;;0.45;;
70967;SDS011;58629;48.808;8.820;2022-09-09T03:41:22;1.05;;;0.50;;
70967;SDS011;58629;48.808;8.820;2022-09-09T03:43:49;1.27;;;0.40;;
70967;SDS011;58629;48.808;8.820;2022-09-09T03:46:18;1.13;;;0.40;;
70967;SDS011;58629;48.808;8.820;2022-09-09T03:48:45;1.45;;;0.40;;
70967;SDS011;58629;48.808;8.820;2022-09-09T03:51:10;0.83;;;0.30;;
70967;SDS011;58629;48.808;8.820;2022-09-09T03:53:35;0.97;;;0.50;;
70967;SDS011;58629;48.808;8.820;2022-09-09T03:56:02;0.40;;;0.40;;
70967;SDS011;58629;48.808;8.820;2022-09-09T03:58:28;1.63;;;0.50;;
70967;SDS011;58629;48.808;8.820;2022-09-09T04:00:57;1.80;;;0.50;;
70967;SDS011;58629;48.808;8.820;2022-09-09T04:03:27;1.42;;;0.68;;
70967;SDS011;58629;48.808;8.820;2022-09-09T04:05:54;1.23;;;0.40;;
70967;SDS011;58629;48.808;8.820;2022-09-09T04:08:20;1.00;;;0.45;;
70967;SDS011;58629;48.808;8.820;2022-09-09T04:10:47;0.50;;;0.50;;
70967;SDS011;58629;48.808;8.820;2022-09-09T04:13:14;1.38;;;0.70;;
70967;SDS011;58629;48.808;8.820;2022-09-09T04:15:42;2.10;;;0.40;;
70967;SDS011;58629;48.808;8.820;2022-09-09T04:18:08;1.20;;;0.50;;
70967;SDS011;58629;48.808;8.820;2022-09-09T04:20:34;2.27;;;0.50;;
70967;SDS011;58629;48.808;8.820;2022-09-09T04:22:59;0.70;;;0.50;;
70967;SDS011;58629;48.808;8.820;2022-09-09T04:25:25;1.33;;;0.37;;
70967;SDS011;58629;48.808;8.820;2022-09-09T04:27:56;1.13;;;0.40;;
70967;SDS011;58629;48.808;8.820;2022-09-09T04:30:23;1.35;;;0.47;;
70967;SDS011;58629;48.808;8.820;2022-09-09T04:32:49;1.48;;;0.50;;
70967;SDS011;58629;48.808;8.820;2022-09-09T04:35:15;0.60;;;0.40;;
70967;SDS011;58629;48.808;8.820;2022-09-09T04:37:40;2.37;;;0.70;;
70967;SDS011;58629;48.808;8.820;2022-09-09T04:40:06;1.27;;;0.50;;
70967;SDS011;58629;48.808;8.820;2022-09-09T04:42:35;0.88;;;0.40;;
70967;SDS011;58629;48.808;8.820;2022-09-09T04:45:00;1.80;;;0.50;;
70967;SDS011;58629;48.808;8.820;2022-09-09T04:47:26;2.00;;;0.50;;
70967;SDS011;58629;48.808;8.820;2022-09-09T04:49:52;1.40;;;0.50;;
70967;SDS011;58629;48.808;8.820;2022-09-09T04:52:19;1.38;;;0.60;;
70967;SDS011;58629;48.808;8.820;2022-09-09T04:54:44;1.08;;;0.45;;
70967;SDS011;58629;48.808;8.820;2022-09-09T04:57:10;1.37;;;0.60;;
70967;SDS011;58629;48.808;8.820;2022-09-09T04:59:36;0.57;;;0.50;;
70967;SDS011;58629;48.808;8.820;2022-09-09T05:02:02;1.20;;;0.40;;
70967;SDS011;58629;48.808;8.820;2022-09-09T05:04:28;1.17;;;0.60;;
70967;SDS011;58629;48.808;8.820;2022-09-09T05:06:53;0.80;;;0.50;;
70967;SDS011;58629;48.808;8.820;2022-09-09T05:09:19;1.10;;;0.60;;
70967;SDS011;58629;48.808;8.820;2022-09-09T05:11:44;1.23;;;0.30;;
70967;SDS011;58629;48.808;8.820;2022-09-09T05:14:09;2.70;;;0.95;;
70967;SDS011;58629;48.808;8.820;2022-09-09T05:16:37;1.70;;;0.50;;
70967;SDS011;58629;48.808;8.820;2022-09-09T05:19:02;0.70;;;0.40;;
70967;SDS011;58629;48.808;8.820;2022-09-09T05:21:28;1.60;;;0.45;;
70967;SDS011;58629;48.808;8.820;2022-09-09T05:23:55;0.60;;;0.43;;
70967;SDS011;58629;48.808;8.820;2022-09-09T05:26:21;0.97;;;0.50;;
70967;SDS011;58629;48.808;8.820;2022-09-09T05:28:47;1.02;;;0.50;;
70967;SDS011;58629;48.808;8.820;2022-09-09T05:31:14;0.60;;;0.30;;
70967;SDS011;58629;48.808;8.820;2022-09-09T05:33:41;0.85;;;0.43;;
70967;SDS011;58629;48.808;8.820;2022-09-09T05:36:12;1.02;;;0.38;;
70967;SDS011;58629;48.808;8.820;2022-09-09T05:38:39;1.92;;;0.60;;
70967;SDS011;58629;48.808;8.820;2022-09-09T05:41:05;0.87;;;0.53;;
70967;SDS011;58629;48.808;8.820;2022-09-09T05:43:31;0.57;;;0.38;;
70967;SDS011;58629;48.808;8.820;2022-09-09T05:46:01;1.50;;;0.50;;
70967;SDS011;58629;48.808;8.820;2022-09-09T05:48:35;1.05;;;0.50;;
70967;SDS011;58629;48.808;8.820;2022-09-09T05:51:02;1.37;;;0.40;;
70967;SDS011;58629;48.808;8.820;2022-09-09T05:53:29;0.75;;;0.40;;
70967;SDS011;58629;48.808;8.820;2022-09-09T05:56:05;1.55;;;0.50;;
70967;SDS011;58629;48.808;8.820;2022-09-09T05:58:34;0.80;;;0.40;;
70967;SDS011;58629;48.808;8.820;2022-09-09T06:03:53;0.87;;;0.50;;
70967;SDS011;58629;48.808;8.820;2022-09-09T06:06:20;1.20;;;0.60;;
70967;SDS011;58629;48.808;8.820;2022-09-09T06:08:47;2.00;;;0.40;;
70967;SDS011;58629;48.808;8.820;2022-09-09T06:11:19;1.10;;;0.50;;
70967;SDS011;58629;48.808;8.820;2022-09-09T06:13:47;0.75;;;0.50;;
70967;SDS011;58629;48.808;8.820;2022-09-09T06:16:14;0.52;;;0.40;;
70967;SDS011;58629;48.808;8.820;2022-09-09T06:18:41;0.80;;;0.40;;
70967;SDS011;58629;48.808;8.820;2022-09-09T06:21:08;2.90;;;0.80;;
70967;SDS011;58629;48.808;8.820;2022-09-09T06:23:39;1.50;;;0.43;;
70967;SDS011;58629;48.808;8.820;2022-09-09T06:26:18;1.90;;;0.60;;
70967;SDS011;58629;48.808;8.820;2022-09-09T06:28:51;1.40;;;0.57;;
70967;SDS011;58629;48.808;8.820;2022-09-09T06:31:19;1.10;;;0.43;;
70967;SDS011;58629;48.808;8.820;2022-09-09T06:33:49;1.75;;;0.60;;
70967;SDS011;58629;48.808;8.820;2022-09-09T06:36:17;2.55;;;0.70;;
70967;SDS011;58629;48.808;8.820;2022-09-09T06:38:46;1.98;;;0.60;;
70967;SDS011;58629;48.808;8.820;2022-09-09T06:41:12;1.97;;;0.53;;
70967;SDS011;58629;48.808;8.820;2022-09-09T06:43:39;1.50;;;0.50;;
70967;SDS011;58629;48.808;8.820;2022-09-09T06:46:06;1.58;;;0.55;;
70967;SDS011;58629;48.808;8.820;2022-09-09T06:48:34;2.13;;;0.60;;
70967;SDS011;58629;48.808;8.820;2022-09-09T06:51:02;1.88;;;0.60;;
70967;SDS011;58629;48.808;8.820;2022-09-09T06:53:32;1.48;;;0.50;;
70967;SDS011;58629;48.808;8.820;2022-09-09T06:56:02;1.05;;;0.55;;
70967;SDS011;58629;48.808;8.820;2022-09-09T06:58:43;1.25;;;0.63;;
70967;SDS011;58629;48.808;8.820;2022-09-09T07:01:10;2.42;;;0.85;;
70967;SDS011;58629;48.808;8.820;2022-09-09T07:03:40;2.30;;;0.70;;
70967;SDS011;58629;48.808;8.820;2022-09-09T07:06:08;0.90;;;0.60;;
70967;SDS011;58629;48.808;8.820;2022-09-09T07:08:39;1.33;;;0.77;;
70967;SDS011;58629;48.808;8.820;2022-09-09T07:11:05;1.53;;;0.70;;
70967;SDS011;58629;48.808;8.820;2022-09-09T07:13:32;1.00;;;0.60;;
70967;SDS011;58629;48.808;8.820;2022-09-09T07:16:07;0.60;;;0.40;;
70967;SDS011;58629;48.808;8.820;2022-09-09T07:18:37;2.30;;;0.60;;
70967;SDS011;58629;48.808;8.820;2022-09-09T07:21:03;3.13;;;0.70;;
70967;SDS011;58629;48.808;8.820;2022-09-09T07:23:29;1.10;;;0.67;;
70967;SDS011;58629;48.808;8.820;2022-09-09T07:25:56;1.75;;;0.70;;
70967;SDS011;58629;48.808;8.820;2022-09-09T07:28:23;0.93;;;0.70;;
70967;SDS011;58629;48.808;8.820;2022-09-09T07:30:59;1.40;;;0.70;;
70967;SDS011;58629;48.808;8.820;2022-09-09T07:33:28;3.38;;;0.90;;
70967;SDS011;58629;48.808;8.820;2022-09-09T07:36:01;1.15;;;0.70;;
70967;SDS011;58629;48.808;8.820;2022-09-09T07:38:28;1.90;;;0.95;;
70967;SDS011;58629;48.808;8.820;2022-09-09T07:40:54;2.97;;;0.93;;
70967;SDS011;58629;48.808;8.820;2022-09-09T07:43:28;2.15;;;0.90;;
70967;SDS011;58629;48.808;8.820;2022-09-09T07:45:59;2.03;;;0.70;;
70967;SDS011;58629;48.808;8.820;2022-09-09T07:48:28;1.15;;;0.60;;
70967;SDS011;58629;48.808;8.820;2022-09-09T07:51:02;2.60;;;0.77;;
70967;SDS011;58629;48.808;8.820;2022-09-09T07:53:28;2.08;;;1.00;;
70967;SDS011;58629;48.808;8.820;2022-09-09T07:56:01;1.85;;;0.82;;
70967;SDS011;58629;48.808;8.820;2022-09-09T07:58:28;2.42;;;0.88;;
70967;SDS011;58629;48.808;8.820;2022-09-09T08:00:53;1.30;;;0.70;;
70967;SDS011;58629;48.808;8.820;2022-09-09T08:03:18;1.27;;;0.60;;
70967;SDS011;58629;48.808;8.820;2022-09-09T08:05:45;1.10;;;0.70;;
70967;SDS011;58629;48.808;8.820;2022-09-09T08:08:10;1.43;;;0.70;;
70967;SDS011;58629;48.808;8.820;2022-09-09T08:10:35;1.63;;;0.80;;
70967;SDS011;58629;48.808;8.820;2022-09-09T08:13:01;3.03;;;1.20;;
70967;SDS011;58629;48.808;8.820;2022-09-09T08:15:26;1.50;;;0.70;;
70967;SDS011;58629;48.808;8.820;2022-09-09T08:17:52;1.67;;;0.70;;
70967;SDS011;58629;48.808;8.820;2022-09-09T08:20:17;1.60;;;0.90;;
70967;SDS011;58629;48.808;8.820;2022-09-09T08:22:43;3.10;;;0.90;;
70967;SDS011;58629;48.808;8.820;2022-09-09T08:25:08;2.05;;;0.85;;
70967;SDS011;58629;48.808;8.820;2022-09-09T08:27:35;1.03;;;0.70;;
70967;SDS011;58629;48.808;8.820;2022-09-09T08:30:00;1.80;;;0.80;;
70967;SDS011;58629;48.808;8.820;2022-09-09T08:32:25;2.67;;;0.80;;
70967;SDS011;58629;48.808;8.820;2022-09-09T08:34:51;1.27;;;0.53;;
70967;SDS011;58629;48.808;8.820;2022-09-09T08:37:16;1.97;;;0.90;;
70967;SDS011;58629;48.808;8.820;2022-09-09T08:39:41;1.07;;;0.67;;
70967;SDS011;58629;48.808;8.820;2022-09-09T08:45:14;1.88;;;0.50;;
70967;SDS011;58629;48.808;8.820;2022-09-09T08:53:04;1.65;;;0.70;;
70967;SDS011;58629;48.808;8.820;2022-09-09T09:03:15;2.50;;;0.80;;
70967;SDS011;58629;48.808;8.820;2022-09-09T09:06:08;2.15;;;0.60;;
70967;SDS011;58629;48.808;8.820;2022-09-09T09:09:08;3.78;;;2.55;;
70967;SDS011;58629;48.808;8.820;2022-09-09T09:11:49;4.28;;;1.00;;
70967;SDS011;58629;48.808;8.820;2022-09-09T09:14:21;1.40;;;0.68;;
70967;SDS011;58629;48.808;8.820;2022-09-09T09:17:04;0.45;;;0.45;;
70967;SDS011;58629;48.808;8.820;2022-09-09T09:19:33;1.48;;;0.60;;
70967;SDS011;58629;48.808;8.820;2022-09-09T09:25:05;1.70;;;0.70;;
70967;SDS011;58629;48.808;8.820;2022-09-09T09:30:38;1.73;;;0.70;;
70967;SDS011;58629;48.808;8.820;2022-09-09T09:33:31;1.98;;;0.70;;
70967;SDS011;58629;48.808;8.820;2022-09-09T09:36:05;1.05;;;0.70;;
70967;SDS011;58629;48.808;8.820;2022-09-09T09:38:33;2.83;;;0.60;;
70967;SDS011;58629;48.808;8.820;2022-09-09T09:40:58;1.75;;;0.60;;
70967;SDS011;58629;48.808;8.820;2022-09-09T09:43:26;2.47;;;0.88;;
70967;SDS011;58629;48.808;8.820;2022-09-09T09:45:53;2.60;;;0.80;;
70967;SDS011;58629;48.808;8.820;2022-09-09T09:48:20;2.28;;;0.70;;
70967;SDS011;58629;48.808;8.820;2022-09-09T09:50:52;1.70;;;0.60;;
70967;SDS011;58629;48.808;8.820;2022-09-09T09:53:27;1.25;;;0.50;;
70967;SDS011;58629;48.808;8.820;2022-09-09T09:55:58;1.90;;;0.80;;
70967;SDS011;58629;48.808;8.820;2022-09-09T09:58:48;2.13;;;0.60;;
70967;SDS011;58629;48.808;8.820;2022-09-09T10:01:19;1.70;;;0.63;;
70967;SDS011;58629;48.808;8.820;2022-09-09T10:03:50;1.17;;;0.60;;
70967;SDS011;58629;48.808;8.820;2022-09-09T10:06:17;1.25;;;0.57;;
70967;SDS011;58629;48.808;8.820;2022-09-09T10:08:45;2.20;;;0.60;;
70967;SDS011;58629;48.808;8.820;2022-09-09T10:14:23;2.80;;;0.60;;
70967;SDS011;58629;48.808;8.820;2022-09-09T10:16:35;1.85;;;0.40;;
70967;SDS011;58629;48.808;8.820;2022-09-09T10:19:20;1.85;;;0.70;;
70967;SDS011;58629;48.808;8.820;2022-09-09T10:24:36;3.67;;;0.70;;
70967;SDS011;58629;48.808;8.820;2022-09-09T10:35:34;1.27;;;0.50;;
70967;SDS011;58629;48.808;8.820;2022-09-09T10:40:43;1.73;;;0.60;;
70967;SDS011;58629;48.808;8.820;2022-09-09T10:49:10;1.77;;;0.70;;
70967;SDS011;58629;48.808;8.820;2022-09-09T10:51:44;2.67;;;0.60;;
70967;SDS011;58629;48.808;8.820;2022-09-09T10:57:11;0.70;;;0.50;;
70967;SDS011;58629;48.808;8.820;2022-09-09T10:59:51;1.40;;;0.40;;
70967;SDS011;58629;48.808;8.820;2022-09-09T11:02:28;1.57;;;0.40;;
70967;SDS011;58629;48.808;8.820;2022-09-09T11:04:59;1.40;;;0.40;;
70967;SDS011;58629;48.808;8.820;2022-09-09T11:10:21;0.32;;;0.32;;
70967;SDS011;58629;48.808;8.820;2022-09-09T11:12:56;0.75;;;0.35;;
70967;SDS011;58629;48.808;8.820;2022-09-09T11:15:35;2.17;;;0.50;;
70967;SDS011;58629;48.808;8.820;2022-09-09T11:18:07;1.27;;;0.35;;
70967;SDS011;58629;48.808;8.820;2022-09-09T11:20:38;0.77;;;0.40;;
70967;SDS011;58629;48.808;8.820;2022-09-09T11:23:13;1.35;;;0.43;;
70967;SDS011;58629;48.808;8.820;2022-09-09T11:25:45;2.13;;;0.50;;
70967;SDS011;58629;48.808;8.820;2022-09-09T11:33:58;1.00;;;0.50;;
70967;SDS011;58629;48.808;8.820;2022-09-09T11:44:39;2.17;;;0.50;;
70967;SDS011;58629;48.808;8.820;2022-09-09T11:47:15;1.00;;;0.30;;
70967;SDS011;58629;48.808;8.820;2022-09-09T11:49:47;1.52;;;0.40;;
70967;SDS011;58629;48.808;8.820;2022-09-09T11:52:21;0.67;;;0.27;;
70967;SDS011;58629;48.808;8.820;2022-09-09T11:54:50;1.50;;;0.30;;
70967;SDS011;58629;48.808;8.820;2022-09-09T11:57:35;6.87;;;2.20;;
70967;SDS011;58629;48.808;8.820;2022-09-09T12:00:01;1.90;;;0.80;;
70967;SDS011;58629;48.808;8.820;2022-09-09T12:02:28;0.40;;;0.40;;
70967;SDS011;58629;48.808;8.820;2022-09-09T12:15:49;1.40;;;0.50;;
70967;SDS011;58629;48.808;8.820;2022-09-09T12:18:32;1.20;;;0.50;;
70967;SDS011;58629;48.808;8.820;2022-09-09T12:21:14;0.40;;;0.30;;
70967;SDS011;58629;48.808;8.820;2022-09-09T12:23:54;0.68;;;0.40;;
70967;SDS011;58629;48.808;8.820;2022-09-09T12:31:37;0.40;;;0.30;;
70967;SDS011;58629;48.808;8.820;2022-09-09T12:34:10;0.87;;;0.40;;
70967;SDS011;58629;48.808;8.820;2022-09-09T12:36:39;1.10;;;0.40;;
70967;SDS011;58629;48.808;8.820;2022-09-09T12:39:27;1.15;;;0.40;;
70967;SDS011;58629;48.808;8.820;2022-09-09T12:41:57;1.33;;;0.40;;
70967;SDS011;58629;48.808;8.820;2022-09-09T12:44:23;1.23;;;0.40;;
70967;SDS011;58629;48.808;8.820;2022-09-09T12:46:49;1.15;;;0.40;;
70967;SDS011;58629;48.808;8.820;2022-09-09T12:49:30;1.05;;;0.50;;
70967;SDS011;58629;48.808;8.820;2022-09-09T12:52:13;2.17;;;0.50;;
70967;SDS011;58629;48.808;8.820;2022-09-09T12:54:55;1.33;;;0.47;;
70967;SDS011;58629;48.808;8.820;2022-09-09T12:57:22;2.15;;;0.50;;
70967;SDS011;58629;48.808;8.820;2022-09-09T12:59:52;0.82;;;0.43;;
70967;SDS011;58629;48.808;8.820;2022-09-09T13:02:29;0.93;;;0.40;;
70967;SDS011;58629;48.808;8.820;2022-09-09T13:04:54;0.90;;;0.50;;
70967;SDS011;58629;48.808;8.820;2022-09-09T13:07:31;1.30;;;0.50;;
70967;SDS011;58629;48.808;8.820;2022-09-09T13:09:57;0.90;;;0.40;;
70967;SDS011;58629;48.808;8.820;2022-09-09T13:12:22;0.60;;;0.50;;
70967;SDS011;58629;48.808;8.820;2022-09-09T13:14:49;2.05;;;0.40;;
70967;SDS011;58629;48.808;8.820;2022-09-09T13:17:20;0.63;;;0.30;;
70967;SDS011;58629;48.808;8.820;2022-09-09T13:19:51;1.17;;;0.52;;
70967;SDS011;58629;48.808;8.820;2022-09-09T13:25:02;1.73;;;0.40;;
70967;SDS011;58629;48.808;8.820;2022-09-09T13:27:31;1.17;;;0.30;;
70967;SDS011;58629;48.808;8.820;2022-09-09T13:29:59;1.07;;;0.30;;
70967;SDS011;58629;48.808;8.820;2022-09-09T13:32:25;2.05;;;0.38;;
70967;SDS011;58629;48.808;8.820;2022-09-09T13:34:59;1.00;;;0.40;;
70967;SDS011;58629;48.808;8.820;2022-09-09T13:37:33;0.85;;;0.43;;
70967;SDS011;58629;48.808;8.820;2022-09-09T13:39:59;1.55;;;0.50;;
70967;SDS011;58629;48.808;8.820;2022-09-09T13:42:26;0.80;;;0.37;;
70967;SDS011;58629;48.808;8.820;2022-09-09T13:44:53;1.35;;;0.30;;
70967;SDS011;58629;48.808;8.820;2022-09-09T13:47:22;0.98;;;0.50;;
70967;SDS011;58629;48.808;8.820;2022-09-09T13:49:53;1.52;;;0.40;;
70967;SDS011;58629;48.808;8.820;2022-09-09T13:52:19;0.83;;;0.40;;
70967;SDS011;58629;48.808;8.820;2022-09-09T13:54:48;1.37;;;0.40;;
70967;SDS011;58629;48.808;8.820;2022-09-09T13:57:18;1.83;;;0.40;;
70967;SDS011;58629;48.808;8.820;2022-09-09T13:59:46;1.13;;;0.40;;
70967;SDS011;58629;48.808;8.820;2022-09-09T14:02:12;1.30;;;0.32;;
70967;SDS011;58629;48.808;8.820;2022-09-09T14:04:37;2.23;;;0.40;;
70967;SDS011;58629;48.808;8.820;2022-09-09T14:07:03;0.43;;;0.30;;
70967;SDS011;58629;48.808;8.820;2022-09-09T14:09:28;0.60;;;0.30;;
70967;SDS011;58629;48.808;8.820;2022-09-09T14:11:53;1.30;;;0.30;;
70967;SDS011;58629;48.808;8.820;2022-09-09T14:14:20;1.13;;;0.45;;
70967;SDS011;58629;48.808;8.820;2022-09-09T14:16:45;1.87;;;0.40;;
70967;SDS011;58629;48.808;8.820;2022-09-09T14:19:11;0.77;;;0.40;;
70967;SDS011;58629;48.808;8.820;2022-09-09T14:21:36;1.00;;;0.30;;
70967;SDS011;58629;48.808;8.820;2022-09-09T14:24:01;0.53;;;0.30;;
70967;SDS011;58629;48.808;8.820;2022-09-09T14:26:27;1.40;;;0.50;;
70967;SDS011;58629;48.808;8.820;2022-09-09T14:28:53;1.30;;;0.30;;
70967;SDS011;58629;48.808;8.820;2022-09-09T14:31:19;1.67;;;0.30;;
70967;SDS011;58629;48.808;8.820;2022-09-09T14:33:44;0.40;;;0.30;;
70967;SDS011;58629;48.808;8.820;2022-09-09T14:36:10;0.50;;;0.30;;
70967;SDS011;58629;48.808;8.820;2022-09-09T14:38:36;1.07;;;0.40;;
70967;SDS011;58629;48.808;8.820;2022-09-09T14:41:07;1.20;;;0.30;;
70967;SDS011;58629;48.808;8.820;2022-09-09T14:43:35;1.00;;;0.30;;
70967;SDS011;58629;48.808;8.820;2022-09-09T14:46:33;0.80;;;0.30;;
70967;SDS011;58629;48.808;8.820;2022-09-09T14:48:52;0.50;;;0.30;;
70967;SDS011;58629;48.808;8.820;2022-09-09T14:51:18;1.10;;;0.37;;
70967;SDS011;58629;48.808;8.820;2022-09-09T14:53:47;1.23;;;0.20;;
70967;SDS011;58629;48.808;8.820;2022-09-09T14:56:19;1.00;;;0.30;;
70967;SDS011;58629;48.808;8.820;2022-09-09T14:58:47;0.65;;;0.30;;
70967;SDS011;58629;48.808;8.820;2022-09-09T15:01:14;1.10;;;0.50;;
70967;SDS011;58629;48.808;8.820;2022-09-09T15:03:41;1.25;;;0.40;;
70967;SDS011;58629;48.808;8.820;2022-09-09T15:06:12;0.70;;;0.38;;
70967;SDS011;58629;48.808;8.820;2022-09-09T15:08:39;1.55;;;0.30;;
70967;SDS011;58629;48.808;8.820;2022-09-09T15:11:06;0.52;;;0.30;;
70967;SDS011;58629;48.808;8.820;2022-09-09T15:13:33;1.07;;;0.40;;
70967;SDS011;58629;48.808;8.820;2022-09-09T15:18:32;1.35;;;0.45;;
70967;SDS011;58629;48.808;8.820;2022-09-09T15:20:58;0.80;;;0.28;;
70967;SDS011;58629;48.808;8.820;2022-09-09T15:23:24;1.15;;;0.30;;
70967;SDS011;58629;48.808;8.820;2022-09-09T15:25:51;1.13;;;0.30;;
70967;SDS011;58629;48.808;8.820;2022-09-09T15:28:17;1.17;;;0.32;;
70967;SDS011;58629;48.808;8.820;2022-09-09T15:30:42;0.87;;;0.30;;
70967;SDS011;58629;48.808;8.820;2022-09-09T15:33:09;0.50;;;0.30;;
70967;SDS011;58629;48.808;8.820;2022-09-09T15:35:35;0.60;;;0.40;;
70967;SDS011;58629;48.808;8.820;2022-09-09T15:38:03;1.07;;;0.40;;
70967;SDS011;58629;48.808;8.820;2022-09-09T15:40:30;1.13;;;0.45;;
70967;SDS011;58629;48.808;8.820;2022-09-09T15:42:57;0.73;;;0.40;;
70967;SDS011;58629;48.808;8.820;2022-09-09T15:45:23;0.73;;;0.20;;
70967;SDS011;58629;48.808;8.820;2022-09-09T15:47:48;0.70;;;0.30;;
70967;SDS011;58629;48.808;8.820;2022-09-09T15:50:14;1.17;;;0.43;;
70967;SDS011;58629;48.808;8.820;2022-09-09T15:52:39;1.87;;;0.43;;
70967;SDS011;58629;48.808;8.820;2022-09-09T15:55:05;1.23;;;0.30;;
70967;SDS011;58629;48.808;8.820;2022-09-09T15:57:31;1.93;;;0.30;;
70967;SDS011;58629;48.808;8.820;2022-09-09T15:59:56;2.17;;;0.10;;
70967;SDS011;58629;48.808;8.820;2022-09-09T16:02:22;0.30;;;0.10;;
70967;SDS011;58629;48.808;8.820;2022-09-09T16:04:47;1.03;;;0.10;;
70967;SDS011;58629;48.808;8.820;2022-09-09T16:07:13;0.30;;;0.10;;
70967;SDS011;58629;48.808;8.820;2022-09-09T16:09:38;0.53;;;0.10;;
70967;SDS011;58629;48.808;8.820;2022-09-09T16:12:04;0.53;;;0.10;;
70967;SDS011;58629;48.808;8.820;2022-09-09T16:14:34;1.60;;;0.10;;
70967;SDS011;58629;48.808;8.820;2022-09-09T16:17:00;0.80;;;0.10;;
70967;SDS011;58629;48.808;8.820;2022-09-09T16:19:27;0.63;;;0.10;;
70967;SDS011;58629;48.808;8.820;2022-09-09T16:21:52;0.20;;;0.10;;
70967;SDS011;58629;48.808;8.820;2022-09-09T16:24:18;0.67;;;0.10;;
70967;SDS011;58629;48.808;8.820;2022-09-09T16:26:49;0.52;;;0.10;;
70967;SDS011;58629;48.808;8.820;2022-09-09T16:29:16;0.45;;;0.10;;
70967;SDS011;58629;48.808;8.820;2022-09-09T16:31:43;0.40;;;0.20;;
70967;SDS011;58629;48.808;8.820;2022-09-09T16:34:10;0.22;;;0.22;;
70967;SDS011;58629;48.808;8.820;2022-09-09T16:36:37;0.45;;;0.20;;
70967;SDS011;58629;48.808;8.820;2022-09-09T16:39:06;0.80;;;0.20;;
70967;SDS011;58629;48.808;8.820;2022-09-09T16:41:40;1.08;;;0.40;;
70967;SDS011;58629;48.808;8.820;2022-09-09T16:44:08;0.40;;;0.30;;
70967;SDS011;58629;48.808;8.820;2022-09-09T16:46:35;0.90;;;0.30;;
70967;SDS011;58629;48.808;8.820;2022-09-09T16:49:04;0.73;;;0.28;;
70967;SDS011;58629;48.808;8.820;2022-09-09T16:51:32;1.42;;;0.60;;
70967;SDS011;58629;48.808;8.820;2022-09-09T16:54:08;1.55;;;0.30;;
70967;SDS011;58629;48.808;8.820;2022-09-09T16:56:36;0.85;;;0.30;;